Torrington, WY (82240)

9:30 AM MDT on July 07, 2015 (GMT -0600)
Torrington Main St Mkt | | Change Station
CLOSE
Current Station
Personal Weather Station
Location: Torrington, WY
Elevation: 4094 ft
Nearby Weather Stations

Elev 4094 ft 42.06 °N, 104.18 °W | Updated 6 minutes ago

Haze
Haze
65.2 °F
Feels Like 65.2 °F
N
1.0
Wind Variable Wind from SW
Gusts 6.0 mph

Today
High -- | Low -- °F
--% Chance of Precip.
Yesterday
High -- | Low -- °F
Precip. -- in
5:28 AM 8:34 PM
Waning Gibbous, 64% visible
Pressure 30.08 in
Visibility 5.0 miles
Clouds Overcast 4600 ft
Dew Point 55 °F
Humidity 70%
Rainfall 0.00 in
Snow Depth Not available.
UV 1 out of 12
Pollen 4.80 out of 12
Air Quality Not available.
Flu Activity Not available.
METAR KTOR 071453Z AUTO 14011KT 5SM HZ OVC046 17/12 A3018 RMK AO2 SLP185 T01720117 55000

More Conditions Fewer Conditions

Pressure 30.08 in
Visibility 5.0 miles
Clouds Overcast 4600 ft
Dew Point 55 °F
Humidity 70%
Rainfall 0.00 in
Snow Depth Not available.
UV 1 out of 12
Pollen 4.80 out of 12
Air Quality Not available.
Flu Activity Not available.
METAR KTOR 071453Z AUTO 14011KT 5SM HZ OVC046 17/12 A3018 RMK AO2 SLP185 T01720117 55000

More Conditions Fewer Conditions

10-Day Weather Forecast

×

Almanac

Astronomy

Jul. 07, 2015 Rise Set
Actual Time
Civil Twilight
Nautical Twilight
Astronomical Twilight
Moon
Length of Visible Light
Length of Day
Tomorrow will be .
, % of the Moon is Illuminated

Today's Extremes

State Highs State Lows

Community

WunderPhotos

Upload Photos

1,835,818 photos uploaded!

WunderBlogs® & News

Nearby

Air Quality

  Air Quality AQ Index Pollutant
Not available.

Snow Depth

Station Depth Elevation

Earthquake Activity

City Distance Mag. Time & Date
Minimum magnitude displayed is 2.5.

Coastal Water Temperatures

Place Temperature

Stations

Nearby Weather Stations

Station Location Temp. Windchill Dew Point Humidity Wind Precip. Elev Updated Type